sensor_id;sensor_type;location;lat;lon;timestamp;P1;durP1;ratioP1;P2;durP2;ratioP2
70153;SDS011;57519;51.494;-2.626;2023-06-14T00:01:41;8.90;;;5.82;;
70153;SDS011;57519;51.494;-2.626;2023-06-14T00:04:06;9.73;;;5.83;;
70153;SDS011;57519;51.494;-2.626;2023-06-14T00:06:33;10.38;;;5.75;;
70153;SDS011;57519;51.494;-2.626;2023-06-14T00:08:59;11.47;;;6.77;;
70153;SDS011;57519;51.494;-2.626;2023-06-14T00:11:24;12.07;;;6.57;;
70153;SDS011;57519;51.494;-2.626;2023-06-14T00:13:51;14.30;;;5.68;;
70153;SDS011;57519;51.494;-2.626;2023-06-14T00:16:17;11.80;;;6.15;;
70153;SDS011;57519;51.494;-2.626;2023-06-14T00:18:44;8.07;;;5.60;;
70153;SDS011;57519;51.494;-2.626;2023-06-14T00:21:10;11.55;;;6.05;;
70153;SDS011;57519;51.494;-2.626;2023-06-14T00:23:37;11.90;;;6.47;;
70153;SDS011;57519;51.494;-2.626;2023-06-14T00:26:03;15.23;;;6.60;;
70153;SDS011;57519;51.494;-2.626;2023-06-14T00:28:28;10.80;;;5.93;;
70153;SDS011;57519;51.494;-2.626;2023-06-14T00:30:54;13.35;;;6.57;;
70153;SDS011;57519;51.494;-2.626;2023-06-14T00:33:22;10.80;;;5.80;;
70153;SDS011;57519;51.494;-2.626;2023-06-14T00:35:47;10.50;;;6.20;;
70153;SDS011;57519;51.494;-2.626;2023-06-14T00:38:13;13.67;;;7.03;;
70153;SDS011;57519;51.494;-2.626;2023-06-14T00:40:38;11.17;;;5.70;;
70153;SDS011;57519;51.494;-2.626;2023-06-14T00:43:06;11.73;;;6.20;;
70153;SDS011;57519;51.494;-2.626;2023-06-14T00:45:31;10.52;;;6.53;;
70153;SDS011;57519;51.494;-2.626;2023-06-14T00:48:00;11.40;;;6.70;;
70153;SDS011;57519;51.494;-2.626;2023-06-14T00:50:27;11.50;;;6.45;;
70153;SDS011;57519;51.494;-2.626;2023-06-14T00:52:54;12.90;;;6.57;;
70153;SDS011;57519;51.494;-2.626;2023-06-14T00:55:21;11.00;;;6.15;;
70153;SDS011;57519;51.494;-2.626;2023-06-14T00:57:46;10.43;;;6.03;;
70153;SDS011;57519;51.494;-2.626;2023-06-14T01:00:12;8.70;;;5.57;;
70153;SDS011;57519;51.494;-2.626;2023-06-14T01:02:38;9.37;;;5.10;;
70153;SDS011;57519;51.494;-2.626;2023-06-14T01:05:05;12.10;;;5.80;;
70153;SDS011;57519;51.494;-2.626;2023-06-14T01:07:54;8.93;;;5.72;;
70153;SDS011;57519;51.494;-2.626;2023-06-14T01:13:21;9.90;;;5.68;;
70153;SDS011;57519;51.494;-2.626;2023-06-14T01:15:52;9.87;;;5.80;;
70153;SDS011;57519;51.494;-2.626;2023-06-14T01:18:20;9.88;;;6.22;;
70153;SDS011;57519;51.494;-2.626;2023-06-14T01:20:49;10.57;;;6.00;;
70153;SDS011;57519;51.494;-2.626;2023-06-14T01:23:21;10.55;;;5.88;;
70153;SDS011;57519;51.494;-2.626;2023-06-14T01:25:48;15.25;;;7.22;;
70153;SDS011;57519;51.494;-2.626;2023-06-14T01:28:17;10.87;;;6.30;;
70153;SDS011;57519;51.494;-2.626;2023-06-14T01:30:44;10.07;;;6.15;;
70153;SDS011;57519;51.494;-2.626;2023-06-14T01:33:17;11.48;;;6.68;;
70153;SDS011;57519;51.494;-2.626;2023-06-14T01:35:46;11.38;;;5.90;;
70153;SDS011;57519;51.494;-2.626;2023-06-14T01:38:14;11.05;;;6.18;;
70153;SDS011;57519;51.494;-2.626;2023-06-14T01:40:42;12.27;;;6.33;;
70153;SDS011;57519;51.494;-2.626;2023-06-14T01:43:09;12.18;;;6.35;;
70153;SDS011;57519;51.494;-2.626;2023-06-14T01:45:38;11.18;;;6.38;;
70153;SDS011;57519;51.494;-2.626;2023-06-14T01:48:06;10.45;;;6.32;;
70153;SDS011;57519;51.494;-2.626;2023-06-14T01:50:32;8.57;;;6.03;;
70153;SDS011;57519;51.494;-2.626;2023-06-14T01:53:00;9.98;;;5.95;;
70153;SDS011;57519;51.494;-2.626;2023-06-14T01:55:26;8.35;;;5.70;;
70153;SDS011;57519;51.494;-2.626;2023-06-14T01:57:52;10.50;;;5.97;;
70153;SDS011;57519;51.494;-2.626;2023-06-14T02:00:18;9.65;;;5.60;;
70153;SDS011;57519;51.494;-2.626;2023-06-14T02:02:44;10.55;;;6.07;;
70153;SDS011;57519;51.494;-2.626;2023-06-14T02:05:11;12.57;;;6.60;;
70153;SDS011;57519;51.494;-2.626;2023-06-14T02:07:36;9.83;;;6.23;;
70153;SDS011;57519;51.494;-2.626;2023-06-14T02:10:03;12.47;;;5.90;;
70153;SDS011;57519;51.494;-2.626;2023-06-14T02:12:29;8.77;;;5.55;;
70153;SDS011;57519;51.494;-2.626;2023-06-14T02:14:54;8.90;;;5.93;;
70153;SDS011;57519;51.494;-2.626;2023-06-14T02:17:21;16.10;;;6.53;;
70153;SDS011;57519;51.494;-2.626;2023-06-14T02:19:46;12.43;;;6.63;;
70153;SDS011;57519;51.494;-2.626;2023-06-14T02:22:12;11.73;;;6.47;;
70153;SDS011;57519;51.494;-2.626;2023-06-14T02:24:39;9.70;;;5.70;;
70153;SDS011;57519;51.494;-2.626;2023-06-14T02:27:05;8.87;;;5.27;;
70153;SDS011;57519;51.494;-2.626;2023-06-14T02:29:31;10.68;;;6.05;;
70153;SDS011;57519;51.494;-2.626;2023-06-14T02:31:57;12.30;;;6.45;;
70153;SDS011;57519;51.494;-2.626;2023-06-14T02:34:22;7.67;;;5.50;;
70153;SDS011;57519;51.494;-2.626;2023-06-14T02:36:48;8.87;;;5.63;;
70153;SDS011;57519;51.494;-2.626;2023-06-14T02:39:13;9.30;;;5.70;;
70153;SDS011;57519;51.494;-2.626;2023-06-14T02:41:42;10.10;;;5.53;;
70153;SDS011;57519;51.494;-2.626;2023-06-14T02:44:09;10.53;;;5.83;;
70153;SDS011;57519;51.494;-2.626;2023-06-14T02:46:36;12.20;;;6.65;;
70153;SDS011;57519;51.494;-2.626;2023-06-14T02:49:02;7.80;;;5.70;;
70153;SDS011;57519;51.494;-2.626;2023-06-14T02:51:27;9.40;;;5.67;;
70153;SDS011;57519;51.494;-2.626;2023-06-14T02:53:53;10.45;;;5.55;;
70153;SDS011;57519;51.494;-2.626;2023-06-14T02:56:18;11.30;;;6.30;;
70153;SDS011;57519;51.494;-2.626;2023-06-14T02:58:44;11.73;;;6.68;;
70153;SDS011;57519;51.494;-2.626;2023-06-14T03:01:10;11.00;;;6.23;;
70153;SDS011;57519;51.494;-2.626;2023-06-14T03:03:39;12.05;;;5.97;;
70153;SDS011;57519;51.494;-2.626;2023-06-14T03:06:04;12.80;;;6.87;;
70153;SDS011;57519;51.494;-2.626;2023-06-14T03:08:30;11.15;;;6.25;;
70153;SDS011;57519;51.494;-2.626;2023-06-14T03:11:03;10.33;;;6.30;;
70153;SDS011;57519;51.494;-2.626;2023-06-14T03:13:30;11.82;;;6.85;;
70153;SDS011;57519;51.494;-2.626;2023-06-14T03:15:57;10.98;;;7.20;;
70153;SDS011;57519;51.494;-2.626;2023-06-14T03:18:23;11.93;;;7.20;;
70153;SDS011;57519;51.494;-2.626;2023-06-14T03:20:49;14.60;;;6.50;;
70153;SDS011;57519;51.494;-2.626;2023-06-14T03:23:16;11.70;;;6.85;;
70153;SDS011;57519;51.494;-2.626;2023-06-14T03:25:41;9.80;;;6.47;;
70153;SDS011;57519;51.494;-2.626;2023-06-14T03:28:07;13.68;;;6.47;;
70153;SDS011;57519;51.494;-2.626;2023-06-14T03:30:35;10.98;;;6.20;;
70153;SDS011;57519;51.494;-2.626;2023-06-14T03:33:00;14.20;;;6.63;;
70153;SDS011;57519;51.494;-2.626;2023-06-14T03:35:26;12.17;;;6.83;;
70153;SDS011;57519;51.494;-2.626;2023-06-14T03:37:53;10.25;;;6.30;;
70153;SDS011;57519;51.494;-2.626;2023-06-14T03:40:18;11.27;;;6.30;;
70153;SDS011;57519;51.494;-2.626;2023-06-14T03:42:45;12.18;;;5.85;;
70153;SDS011;57519;51.494;-2.626;2023-06-14T03:45:10;15.80;;;6.53;;
70153;SDS011;57519;51.494;-2.626;2023-06-14T03:47:36;10.57;;;5.97;;
70153;SDS011;57519;51.494;-2.626;2023-06-14T03:50:02;11.63;;;6.27;;
70153;SDS011;57519;51.494;-2.626;2023-06-14T03:52:28;10.18;;;6.05;;
70153;SDS011;57519;51.494;-2.626;2023-06-14T03:54:54;10.30;;;6.00;;
70153;SDS011;57519;51.494;-2.626;2023-06-14T03:57:20;11.30;;;6.10;;
70153;SDS011;57519;51.494;-2.626;2023-06-14T03:59:46;9.75;;;5.57;;
70153;SDS011;57519;51.494;-2.626;2023-06-14T04:02:12;11.67;;;6.27;;
70153;SDS011;57519;51.494;-2.626;2023-06-14T04:04:40;10.00;;;5.67;;
70153;SDS011;57519;51.494;-2.626;2023-06-14T04:07:09;10.35;;;5.07;;
70153;SDS011;57519;51.494;-2.626;2023-06-14T04:09:36;10.73;;;4.80;;
70153;SDS011;57519;51.494;-2.626;2023-06-14T04:12:02;9.18;;;5.03;;
70153;SDS011;57519;51.494;-2.626;2023-06-14T04:14:28;9.73;;;4.40;;
70153;SDS011;57519;51.494;-2.626;2023-06-14T04:16:55;7.63;;;4.70;;
70153;SDS011;57519;51.494;-2.626;2023-06-14T04:19:21;9.33;;;5.20;;
70153;SDS011;57519;51.494;-2.626;2023-06-14T04:21:46;11.02;;;5.13;;
70153;SDS011;57519;51.494;-2.626;2023-06-14T04:24:12;14.63;;;6.13;;
70153;SDS011;57519;51.494;-2.626;2023-06-14T04:26:42;10.57;;;5.38;;
70153;SDS011;57519;51.494;-2.626;2023-06-14T04:29:13;10.13;;;4.63;;
70153;SDS011;57519;51.494;-2.626;2023-06-14T04:31:41;7.65;;;4.50;;
70153;SDS011;57519;51.494;-2.626;2023-06-14T04:34:07;10.95;;;4.72;;
70153;SDS011;57519;51.494;-2.626;2023-06-14T04:36:33;8.00;;;4.40;;
70153;SDS011;57519;51.494;-2.626;2023-06-14T04:39:02;9.95;;;4.97;;
70153;SDS011;57519;51.494;-2.626;2023-06-14T04:41:30;8.53;;;4.57;;
70153;SDS011;57519;51.494;-2.626;2023-06-14T04:44:00;7.85;;;4.35;;
70153;SDS011;57519;51.494;-2.626;2023-06-14T04:46:28;14.68;;;5.20;;
70153;SDS011;57519;51.494;-2.626;2023-06-14T04:48:55;8.02;;;4.80;;
70153;SDS011;57519;51.494;-2.626;2023-06-14T04:51:21;7.25;;;4.72;;
70153;SDS011;57519;51.494;-2.626;2023-06-14T04:53:55;10.77;;;4.80;;
70153;SDS011;57519;51.494;-2.626;2023-06-14T04:56:23;6.88;;;4.68;;
70153;SDS011;57519;51.494;-2.626;2023-06-14T04:58:53;8.40;;;4.80;;
70153;SDS011;57519;51.494;-2.626;2023-06-14T05:01:19;8.82;;;4.85;;
70153;SDS011;57519;51.494;-2.626;2023-06-14T05:03:46;6.63;;;4.45;;
70153;SDS011;57519;51.494;-2.626;2023-06-14T05:06:14;7.37;;;4.63;;
70153;SDS011;57519;51.494;-2.626;2023-06-14T05:08:40;10.10;;;4.68;;
70153;SDS011;57519;51.494;-2.626;2023-06-14T05:11:06;7.70;;;4.25;;
70153;SDS011;57519;51.494;-2.626;2023-06-14T05:13:31;13.63;;;4.77;;
70153;SDS011;57519;51.494;-2.626;2023-06-14T05:15:58;7.97;;;4.30;;
70153;SDS011;57519;51.494;-2.626;2023-06-14T05:18:24;9.47;;;4.80;;
70153;SDS011;57519;51.494;-2.626;2023-06-14T05:20:50;9.48;;;4.70;;
70153;SDS011;57519;51.494;-2.626;2023-06-14T05:23:16;10.50;;;4.57;;
70153;SDS011;57519;51.494;-2.626;2023-06-14T05:25:42;10.03;;;4.27;;
70153;SDS011;57519;51.494;-2.626;2023-06-14T05:28:11;6.38;;;3.75;;
70153;SDS011;57519;51.494;-2.626;2023-06-14T05:30:40;11.93;;;4.40;;
70153;SDS011;57519;51.494;-2.626;2023-06-14T05:33:08;9.50;;;4.57;;
70153;SDS011;57519;51.494;-2.626;2023-06-14T05:35:34;8.70;;;4.40;;
70153;SDS011;57519;51.494;-2.626;2023-06-14T05:37:59;11.18;;;4.65;;
70153;SDS011;57519;51.494;-2.626;2023-06-14T05:40:25;10.17;;;4.13;;
70153;SDS011;57519;51.494;-2.626;2023-06-14T05:42:51;9.10;;;4.85;;
70153;SDS011;57519;51.494;-2.626;2023-06-14T05:45:17;10.97;;;4.03;;
70153;SDS011;57519;51.494;-2.626;2023-06-14T05:47:43;9.38;;;4.57;;
70153;SDS011;57519;51.494;-2.626;2023-06-14T05:50:08;14.07;;;5.07;;
70153;SDS011;57519;51.494;-2.626;2023-06-14T05:52:34;11.35;;;5.55;;
70153;SDS011;57519;51.494;-2.626;2023-06-14T05:57:50;7.82;;;4.18;;
70153;SDS011;57519;51.494;-2.626;2023-06-14T06:00:15;14.23;;;5.67;;
70153;SDS011;57519;51.494;-2.626;2023-06-14T06:02:42;7.73;;;4.50;;
70153;SDS011;57519;51.494;-2.626;2023-06-14T06:05:08;9.68;;;5.25;;
70153;SDS011;57519;51.494;-2.626;2023-06-14T06:07:35;12.13;;;5.10;;
70153;SDS011;57519;51.494;-2.626;2023-06-14T06:10:03;7.13;;;4.05;;
70153;SDS011;57519;51.494;-2.626;2023-06-14T06:12:30;15.05;;;4.57;;
70153;SDS011;57519;51.494;-2.626;2023-06-14T06:14:55;11.40;;;5.47;;
70153;SDS011;57519;51.494;-2.626;2023-06-14T06:17:23;11.90;;;5.20;;
70153;SDS011;57519;51.494;-2.626;2023-06-14T06:19:53;7.90;;;4.87;;
70153;SDS011;57519;51.494;-2.626;2023-06-14T06:22:19;10.65;;;5.07;;
70153;SDS011;57519;51.494;-2.626;2023-06-14T06:24:45;6.83;;;4.10;;
70153;SDS011;57519;51.494;-2.626;2023-06-14T06:27:10;9.32;;;4.78;;
70153;SDS011;57519;51.494;-2.626;2023-06-14T06:29:37;9.23;;;4.50;;
70153;SDS011;57519;51.494;-2.626;2023-06-14T06:32:03;10.40;;;4.87;;
70153;SDS011;57519;51.494;-2.626;2023-06-14T06:34:28;9.32;;;4.93;;
70153;SDS011;57519;51.494;-2.626;2023-06-14T06:36:54;10.73;;;4.87;;
70153;SDS011;57519;51.494;-2.626;2023-06-14T06:39:23;12.73;;;5.78;;
70153;SDS011;57519;51.494;-2.626;2023-06-14T06:41:48;14.10;;;5.78;;
70153;SDS011;57519;51.494;-2.626;2023-06-14T06:44:15;12.37;;;5.73;;
70153;SDS011;57519;51.494;-2.626;2023-06-14T06:46:41;11.68;;;4.90;;
70153;SDS011;57519;51.494;-2.626;2023-06-14T06:49:07;8.70;;;4.73;;
70153;SDS011;57519;51.494;-2.626;2023-06-14T06:51:34;9.52;;;4.18;;
70153;SDS011;57519;51.494;-2.626;2023-06-14T06:54:01;12.07;;;4.80;;
70153;SDS011;57519;51.494;-2.626;2023-06-14T06:56:27;7.90;;;4.70;;
70153;SDS011;57519;51.494;-2.626;2023-06-14T06:58:53;11.52;;;4.38;;
70153;SDS011;57519;51.494;-2.626;2023-06-14T07:01:19;13.52;;;5.82;;
70153;SDS011;57519;51.494;-2.626;2023-06-14T07:03:45;9.77;;;4.47;;
70153;SDS011;57519;51.494;-2.626;2023-06-14T07:06:11;11.07;;;5.22;;
70153;SDS011;57519;51.494;-2.626;2023-06-14T07:08:36;7.45;;;4.63;;
70153;SDS011;57519;51.494;-2.626;2023-06-14T07:11:03;8.43;;;4.97;;
70153;SDS011;57519;51.494;-2.626;2023-06-14T07:13:29;10.50;;;4.30;;
70153;SDS011;57519;51.494;-2.626;2023-06-14T07:15:56;12.27;;;4.85;;
70153;SDS011;57519;51.494;-2.626;2023-06-14T07:18:23;6.57;;;4.70;;
70153;SDS011;57519;51.494;-2.626;2023-06-14T07:20:49;13.15;;;4.18;;
70153;SDS011;57519;51.494;-2.626;2023-06-14T07:23:15;11.30;;;5.57;;
70153;SDS011;57519;51.494;-2.626;2023-06-14T07:25:41;10.60;;;5.53;;
70153;SDS011;57519;51.494;-2.626;2023-06-14T07:28:06;9.53;;;4.50;;
70153;SDS011;57519;51.494;-2.626;2023-06-14T07:30:32;10.60;;;4.77;;
70153;SDS011;57519;51.494;-2.626;2023-06-14T07:32:58;13.43;;;4.53;;
70153;SDS011;57519;51.494;-2.626;2023-06-14T07:35:23;15.83;;;5.80;;
70153;SDS011;57519;51.494;-2.626;2023-06-14T07:37:49;8.23;;;4.68;;
70153;SDS011;57519;51.494;-2.626;2023-06-14T07:40:15;13.43;;;5.60;;
70153;SDS011;57519;51.494;-2.626;2023-06-14T07:42:40;13.63;;;5.70;;
70153;SDS011;57519;51.494;-2.626;2023-06-14T07:45:06;9.07;;;4.70;;
70153;SDS011;57519;51.494;-2.626;2023-06-14T07:47:32;8.38;;;4.90;;
70153;SDS011;57519;51.494;-2.626;2023-06-14T07:49:58;6.83;;;4.37;;
70153;SDS011;57519;51.494;-2.626;2023-06-14T07:52:23;9.10;;;4.93;;
70153;SDS011;57519;51.494;-2.626;2023-06-14T07:54:49;11.17;;;4.43;;
70153;SDS011;57519;51.494;-2.626;2023-06-14T07:57:18;10.15;;;4.95;;
70153;SDS011;57519;51.494;-2.626;2023-06-14T07:59:45;9.00;;;4.95;;
70153;SDS011;57519;51.494;-2.626;2023-06-14T08:02:11;9.63;;;5.33;;
70153;SDS011;57519;51.494;-2.626;2023-06-14T08:04:36;10.25;;;5.72;;
70153;SDS011;57519;51.494;-2.626;2023-06-14T08:07:02;14.00;;;4.93;;
70153;SDS011;57519;51.494;-2.626;2023-06-14T08:09:27;9.47;;;5.83;;
70153;SDS011;57519;51.494;-2.626;2023-06-14T08:11:54;9.10;;;5.00;;
70153;SDS011;57519;51.494;-2.626;2023-06-14T08:14:20;16.17;;;5.43;;
70153;SDS011;57519;51.494;-2.626;2023-06-14T08:16:45;9.37;;;5.23;;
70153;SDS011;57519;51.494;-2.626;2023-06-14T08:19:11;12.00;;;6.90;;
70153;SDS011;57519;51.494;-2.626;2023-06-14T08:21:36;7.47;;;4.45;;
70153;SDS011;57519;51.494;-2.626;2023-06-14T08:24:02;12.10;;;5.37;;
70153;SDS011;57519;51.494;-2.626;2023-06-14T08:26:27;13.93;;;6.10;;
70153;SDS011;57519;51.494;-2.626;2023-06-14T08:28:57;9.60;;;5.80;;
70153;SDS011;57519;51.494;-2.626;2023-06-14T08:31:23;12.88;;;5.53;;
70153;SDS011;57519;51.494;-2.626;2023-06-14T08:33:49;10.70;;;5.75;;
70153;SDS011;57519;51.494;-2.626;2023-06-14T08:36:15;11.60;;;5.40;;
70153;SDS011;57519;51.494;-2.626;2023-06-14T08:38:40;8.60;;;5.53;;
70153;SDS011;57519;51.494;-2.626;2023-06-14T08:41:06;10.60;;;5.57;;
70153;SDS011;57519;51.494;-2.626;2023-06-14T08:43:32;10.95;;;6.20;;
70153;SDS011;57519;51.494;-2.626;2023-06-14T08:46:00;10.35;;;5.25;;
70153;SDS011;57519;51.494;-2.626;2023-06-14T08:48:28;11.07;;;5.30;;
70153;SDS011;57519;51.494;-2.626;2023-06-14T08:50:58;11.77;;;5.20;;
70153;SDS011;57519;51.494;-2.626;2023-06-14T08:53:32;10.32;;;5.50;;
70153;SDS011;57519;51.494;-2.626;2023-06-14T08:56:02;11.48;;;5.97;;
70153;SDS011;57519;51.494;-2.626;2023-06-14T08:58:30;11.82;;;5.15;;
70153;SDS011;57519;51.494;-2.626;2023-06-14T09:00:58;9.33;;;5.30;;
70153;SDS011;57519;51.494;-2.626;2023-06-14T09:03:24;12.65;;;5.90;;
70153;SDS011;57519;51.494;-2.626;2023-06-14T09:05:55;9.75;;;5.50;;
70153;SDS011;57519;51.494;-2.626;2023-06-14T09:08:21;9.35;;;4.50;;
70153;SDS011;57519;51.494;-2.626;2023-06-14T09:10:48;10.88;;;5.57;;
70153;SDS011;57519;51.494;-2.626;2023-06-14T09:13:16;8.73;;;4.77;;
70153;SDS011;57519;51.494;-2.626;2023-06-14T09:15:42;8.80;;;5.28;;
70153;SDS011;57519;51.494;-2.626;2023-06-14T09:18:07;10.00;;;5.30;;
70153;SDS011;57519;51.494;-2.626;2023-06-14T09:20:36;9.90;;;4.90;;
70153;SDS011;57519;51.494;-2.626;2023-06-14T09:23:02;12.88;;;5.85;;
70153;SDS011;57519;51.494;-2.626;2023-06-14T09:25:30;12.75;;;5.72;;
70153;SDS011;57519;51.494;-2.626;2023-06-14T09:27:55;11.07;;;5.47;;
70153;SDS011;57519;51.494;-2.626;2023-06-14T09:30:22;11.38;;;4.95;;
70153;SDS011;57519;51.494;-2.626;2023-06-14T09:32:47;11.00;;;5.40;;
70153;SDS011;57519;51.494;-2.626;2023-06-14T09:35:15;11.27;;;5.00;;
70153;SDS011;57519;51.494;-2.626;2023-06-14T09:37:43;9.18;;;5.05;;
70153;SDS011;57519;51.494;-2.626;2023-06-14T09:40:10;7.33;;;4.37;;
70153;SDS011;57519;51.494;-2.626;2023-06-14T09:42:36;8.05;;;4.80;;
70153;SDS011;57519;51.494;-2.626;2023-06-14T09:45:02;8.02;;;4.95;;
70153;SDS011;57519;51.494;-2.626;2023-06-14T09:47:28;9.95;;;5.90;;
70153;SDS011;57519;51.494;-2.626;2023-06-14T09:49:54;11.13;;;5.10;;
70153;SDS011;57519;51.494;-2.626;2023-06-14T09:52:20;9.70;;;5.00;;
70153;SDS011;57519;51.494;-2.626;2023-06-14T09:54:47;7.97;;;4.67;;
70153;SDS011;57519;51.494;-2.626;2023-06-14T09:57:14;9.63;;;4.28;;
70153;SDS011;57519;51.494;-2.626;2023-06-14T09:59:42;8.80;;;4.53;;
70153;SDS011;57519;51.494;-2.626;2023-06-14T10:02:28;8.15;;;4.38;;
70153;SDS011;57519;51.494;-2.626;2023-06-14T10:05:04;10.93;;;4.45;;
70153;SDS011;57519;51.494;-2.626;2023-06-14T10:07:35;9.03;;;4.80;;
70153;SDS011;57519;51.494;-2.626;2023-06-14T10:10:06;8.02;;;3.72;;
70153;SDS011;57519;51.494;-2.626;2023-06-14T10:12:32;9.13;;;4.63;;
70153;SDS011;57519;51.494;-2.626;2023-06-14T10:14:58;9.45;;;4.43;;
70153;SDS011;57519;51.494;-2.626;2023-06-14T10:20:40;9.47;;;4.63;;
70153;SDS011;57519;51.494;-2.626;2023-06-14T10:23:17;9.90;;;4.55;;
70153;SDS011;57519;51.494;-2.626;2023-06-14T10:25:49;10.68;;;4.97;;
70153;SDS011;57519;51.494;-2.626;2023-06-14T10:28:20;10.73;;;4.25;;
70153;SDS011;57519;51.494;-2.626;2023-06-14T10:34:20;13.30;;;4.77;;
70153;SDS011;57519;51.494;-2.626;2023-06-14T10:38:58;10.45;;;3.72;;
70153;SDS011;57519;51.494;-2.626;2023-06-14T10:41:25;12.23;;;5.18;;
70153;SDS011;57519;51.494;-2.626;2023-06-14T10:43:52;13.35;;;5.53;;
70153;SDS011;57519;51.494;-2.626;2023-06-14T10:46:39;9.47;;;4.30;;
70153;SDS011;57519;51.494;-2.626;2023-06-14T10:49:05;10.07;;;4.10;;
70153;SDS011;57519;51.494;-2.626;2023-06-14T10:51:39;8.27;;;4.30;;
70153;SDS011;57519;51.494;-2.626;2023-06-14T10:54:12;7.93;;;3.60;;
70153;SDS011;57519;51.494;-2.626;2023-06-14T10:56:39;7.78;;;4.32;;
70153;SDS011;57519;51.494;-2.626;2023-06-14T10:59:20;8.97;;;4.70;;
70153;SDS011;57519;51.494;-2.626;2023-06-14T11:01:52;7.60;;;4.15;;
70153;SDS011;57519;51.494;-2.626;2023-06-14T11:04:28;10.43;;;3.90;;
70153;SDS011;57519;51.494;-2.626;2023-06-14T11:07:20;9.33;;;3.90;;
70153;SDS011;57519;51.494;-2.626;2023-06-14T11:10:09;11.18;;;4.03;;
70153;SDS011;57519;51.494;-2.626;2023-06-14T11:12:51;8.02;;;3.70;;
70153;SDS011;57519;51.494;-2.626;2023-06-14T11:15:20;8.73;;;4.25;;
70153;SDS011;57519;51.494;-2.626;2023-06-14T11:17:52;10.77;;;4.00;;
70153;SDS011;57519;51.494;-2.626;2023-06-14T11:20:25;10.77;;;4.40;;
70153;SDS011;57519;51.494;-2.626;2023-06-14T11:22:51;10.45;;;4.07;;
70153;SDS011;57519;51.494;-2.626;2023-06-14T11:25:17;11.93;;;4.35;;
70153;SDS011;57519;51.494;-2.626;2023-06-14T11:27:43;11.48;;;4.82;;
70153;SDS011;57519;51.494;-2.626;2023-06-14T11:30:09;7.97;;;4.18;;
70153;SDS011;57519;51.494;-2.626;2023-06-14T11:32:36;15.13;;;4.40;;
70153;SDS011;57519;51.494;-2.626;2023-06-14T11:35:02;9.02;;;4.15;;
70153;SDS011;57519;51.494;-2.626;2023-06-14T11:37:29;7.70;;;3.72;;
70153;SDS011;57519;51.494;-2.626;2023-06-14T11:40:01;8.32;;;3.90;;
70153;SDS011;57519;51.494;-2.626;2023-06-14T11:42:33;11.55;;;4.75;;
70153;SDS011;57519;51.494;-2.626;2023-06-14T11:44:59;9.67;;;3.80;;
70153;SDS011;57519;51.494;-2.626;2023-06-14T11:47:24;10.25;;;4.00;;
70153;SDS011;57519;51.494;-2.626;2023-06-14T11:49:57;11.17;;;4.37;;
70153;SDS011;57519;51.494;-2.626;2023-06-14T11:52:23;9.57;;;4.13;;
70153;SDS011;57519;51.494;-2.626;2023-06-14T11:54:49;10.32;;;4.18;;
70153;SDS011;57519;51.494;-2.626;2023-06-14T11:57:15;10.50;;;3.93;;
70153;SDS011;57519;51.494;-2.626;2023-06-14T11:59:49;18.23;;;5.07;;
70153;SDS011;57519;51.494;-2.626;2023-06-14T12:02:15;10.43;;;4.68;;
70153;SDS011;57519;51.494;-2.626;2023-06-14T12:04:41;10.88;;;3.97;;
70153;SDS011;57519;51.494;-2.626;2023-06-14T12:07:14;7.90;;;4.30;;
70153;SDS011;57519;51.494;-2.626;2023-06-14T12:09:42;10.10;;;3.70;;
70153;SDS011;57519;51.494;-2.626;2023-06-14T12:12:20;12.45;;;4.30;;
70153;SDS011;57519;51.494;-2.626;2023-06-14T12:14:47;9.90;;;4.47;;
70153;SDS011;57519;51.494;-2.626;2023-06-14T12:17:13;7.70;;;4.10;;
70153;SDS011;57519;51.494;-2.626;2023-06-14T12:19:42;9.90;;;4.07;;
70153;SDS011;57519;51.494;-2.626;2023-06-14T12:22:09;11.95;;;4.00;;
70153;SDS011;57519;51.494;-2.626;2023-06-14T12:24:35;10.45;;;5.00;;
70153;SDS011;57519;51.494;-2.626;2023-06-14T12:27:00;8.20;;;3.67;;
70153;SDS011;57519;51.494;-2.626;2023-06-14T12:29:29;9.55;;;4.60;;
70153;SDS011;57519;51.494;-2.626;2023-06-14T12:31:56;9.90;;;4.25;;
70153;SDS011;57519;51.494;-2.626;2023-06-14T12:34:25;13.15;;;4.47;;
70153;SDS011;57519;51.494;-2.626;2023-06-14T12:36:52;13.77;;;5.45;;
70153;SDS011;57519;51.494;-2.626;2023-06-14T12:39:18;13.97;;;5.13;;
70153;SDS011;57519;51.494;-2.626;2023-06-14T12:41:44;9.88;;;4.25;;
70153;SDS011;57519;51.494;-2.626;2023-06-14T12:44:10;12.73;;;4.60;;
70153;SDS011;57519;51.494;-2.626;2023-06-14T12:46:37;9.07;;;4.03;;
70153;SDS011;57519;51.494;-2.626;2023-06-14T12:49:04;11.00;;;4.20;;
70153;SDS011;57519;51.494;-2.626;2023-06-14T12:51:30;10.40;;;4.63;;
70153;SDS011;57519;51.494;-2.626;2023-06-14T12:53:55;10.23;;;4.57;;
70153;SDS011;57519;51.494;-2.626;2023-06-14T12:56:21;9.43;;;4.40;;
70153;SDS011;57519;51.494;-2.626;2023-06-14T12:58:46;8.00;;;4.47;;
70153;SDS011;57519;51.494;-2.626;2023-06-14T13:01:12;9.55;;;4.28;;
70153;SDS011;57519;51.494;-2.626;2023-06-14T13:03:38;9.93;;;4.47;;
70153;SDS011;57519;51.494;-2.626;2023-06-14T13:06:03;8.93;;;4.17;;
70153;SDS011;57519;51.494;-2.626;2023-06-14T13:08:29;10.57;;;4.50;;
70153;SDS011;57519;51.494;-2.626;2023-06-14T13:10:55;9.95;;;4.22;;
70153;SDS011;57519;51.494;-2.626;2023-06-14T13:13:21;9.90;;;4.47;;
70153;SDS011;57519;51.494;-2.626;2023-06-14T13:15:46;10.55;;;4.20;;
70153;SDS011;57519;51.494;-2.626;2023-06-14T13:18:13;11.73;;;4.73;;
70153;SDS011;57519;51.494;-2.626;2023-06-14T13:20:39;9.10;;;4.13;;
70153;SDS011;57519;51.494;-2.626;2023-06-14T13:23:04;10.93;;;4.10;;
70153;SDS011;57519;51.494;-2.626;2023-06-14T13:25:32;8.35;;;4.57;;
70153;SDS011;57519;51.494;-2.626;2023-06-14T13:27:59;9.73;;;4.43;;
70153;SDS011;57519;51.494;-2.626;2023-06-14T13:30:24;9.47;;;4.40;;
70153;SDS011;57519;51.494;-2.626;2023-06-14T13:32:50;9.38;;;4.45;;
70153;SDS011;57519;51.494;-2.626;2023-06-14T13:35:17;15.35;;;4.90;;
70153;SDS011;57519;51.494;-2.626;2023-06-14T13:37:43;9.03;;;4.77;;
70153;SDS011;57519;51.494;-2.626;2023-06-14T13:40:09;10.15;;;4.57;;
70153;SDS011;57519;51.494;-2.626;2023-06-14T13:42:35;8.18;;;4.57;;
70153;SDS011;57519;51.494;-2.626;2023-06-14T13:45:01;11.40;;;4.50;;
70153;SDS011;57519;51.494;-2.626;2023-06-14T13:47:27;10.98;;;4.82;;
70153;SDS011;57519;51.494;-2.626;2023-06-14T13:49:56;14.02;;;5.38;;
70153;SDS011;57519;51.494;-2.626;2023-06-14T13:52:21;9.77;;;4.73;;
70153;SDS011;57519;51.494;-2.626;2023-06-14T13:54:47;9.18;;;3.95;;
70153;SDS011;57519;51.494;-2.626;2023-06-14T13:57:13;10.10;;;4.50;;
70153;SDS011;57519;51.494;-2.626;2023-06-14T13:59:39;10.13;;;4.70;;
70153;SDS011;57519;51.494;-2.626;2023-06-14T14:02:05;10.57;;;4.93;;
70153;SDS011;57519;51.494;-2.626;2023-06-14T14:04:34;7.90;;;4.38;;
70153;SDS011;57519;51.494;-2.626;2023-06-14T14:07:02;9.50;;;4.50;;
70153;SDS011;57519;51.494;-2.626;2023-06-14T14:09:29;10.65;;;4.28;;
70153;SDS011;57519;51.494;-2.626;2023-06-14T14:11:58;10.17;;;4.50;;
70153;SDS011;57519;51.494;-2.626;2023-06-14T14:14:24;7.35;;;3.83;;
70153;SDS011;57519;51.494;-2.626;2023-06-14T14:16:50;11.07;;;3.90;;
70153;SDS011;57519;51.494;-2.626;2023-06-14T14:19:19;13.88;;;4.68;;
70153;SDS011;57519;51.494;-2.626;2023-06-14T14:21:48;9.80;;;4.03;;
70153;SDS011;57519;51.494;-2.626;2023-06-14T14:24:13;11.38;;;4.68;;
70153;SDS011;57519;51.494;-2.626;2023-06-14T14:26:39;8.73;;;4.40;;
70153;SDS011;57519;51.494;-2.626;2023-06-14T14:29:05;10.97;;;4.73;;
70153;SDS011;57519;51.494;-2.626;2023-06-14T14:31:30;12.07;;;5.47;;
70153;SDS011;57519;51.494;-2.626;2023-06-14T14:33:56;10.02;;;4.72;;
70153;SDS011;57519;51.494;-2.626;2023-06-14T14:36:21;11.70;;;5.07;;
70153;SDS011;57519;51.494;-2.626;2023-06-14T14:38:47;9.87;;;5.03;;
70153;SDS011;57519;51.494;-2.626;2023-06-14T14:41:16;10.77;;;4.20;;